createdAt,value
2019-02-10T00:02:06.226Z,98.80
2019-02-10T00:04:40.097Z,98.90
2019-02-10T00:07:14.036Z,98.80
2019-02-10T00:09:47.961Z,98.80
2019-02-10T00:12:22.171Z,98.80
2019-02-10T00:14:57.680Z,98.70
2019-02-10T00:17:31.937Z,98.70
2019-02-10T00:20:08.269Z,98.60
2019-02-10T00:22:42.699Z,98.50
2019-02-10T00:25:17.249Z,98.60
2019-02-10T00:27:51.385Z,98.70
2019-02-10T00:30:24.921Z,98.70
2019-02-10T00:32:58.844Z,98.60
2019-02-10T00:35:32.543Z,98.60
2019-02-10T00:38:06.261Z,98.50
2019-02-10T00:40:40.609Z,98.60
2019-02-10T00:43:14.445Z,98.60
2019-02-10T00:45:50.895Z,98.60
2019-02-10T00:48:25.005Z,98.60
2019-02-10T00:50:59.341Z,98.50
2019-02-10T00:53:33.663Z,98.50
2019-02-10T00:56:09.737Z,98.50
2019-02-10T00:58:45.135Z,98.50
2019-02-10T01:01:21.879Z,98.60
2019-02-10T01:04:02.593Z,98.50
2019-02-10T01:06:41.476Z,98.40
2019-02-10T01:09:12.940Z,98.60
2019-02-10T01:11:46.723Z,98.60
2019-02-10T01:14:20.169Z,98.70
2019-02-10T01:16:53.986Z,98.70
2019-02-10T01:19:27.911Z,98.60
2019-02-10T01:22:01.431Z,98.50
2019-02-10T01:24:35.401Z,98.50
2019-02-10T01:27:08.934Z,98.60
2019-02-10T01:29:43.380Z,98.60
2019-02-10T01:32:17.000Z,98.40
2019-02-10T01:34:52.042Z,98.00
2019-02-10T01:37:27.376Z,98.00
2019-02-10T01:40:01.165Z,98.00
2019-02-10T01:42:35.516Z,98.10
2019-02-10T01:45:11.221Z,98.10
2019-02-10T01:47:45.844Z,98.10
2019-02-10T01:50:20.124Z,98.10
2019-02-10T01:52:53.791Z,98.10
2019-02-10T01:55:27.956Z,97.90
2019-02-10T01:58:01.505Z,98.00
2019-02-10T02:00:36.014Z,98.00
2019-02-10T02:03:09.554Z,97.90
2019-02-10T02:05:44.460Z,97.80
2019-02-10T02:08:17.953Z,97.90
2019-02-10T02:10:52.051Z,97.90
2019-02-10T02:13:25.762Z,97.80
2019-02-10T02:16:00.872Z,97.80
2019-02-10T02:18:34.474Z,97.80
2019-02-10T02:21:08.592Z,98.00
2019-02-10T02:23:42.603Z,98.00
2019-02-10T02:26:16.766Z,98.00
2019-02-10T02:28:50.214Z,98.10
2019-02-10T02:31:24.658Z,98.00
2019-02-10T02:33:58.790Z,98.10
2019-02-10T02:36:34.563Z,98.30
2019-02-10T02:39:10.445Z,98.30
2019-02-10T02:41:44.843Z,98.30
2019-02-10T02:44:19.164Z,98.80
2019-02-10T02:46:53.356Z,98.40
2019-02-10T02:49:27.221Z,98.40
2019-02-10T02:52:01.112Z,98.20
2019-02-10T02:54:34.951Z,98.20
2019-02-10T02:57:08.950Z,98.20
2019-02-10T02:59:42.675Z,98.20
2019-02-10T03:02:16.723Z,98.20
2019-02-10T03:04:50.352Z,98.10
2019-02-10T03:07:27.114Z,98.20
2019-02-10T03:10:00.960Z,98.20
2019-02-10T03:12:35.013Z,98.30
2019-02-10T03:15:09.205Z,98.30
2019-02-10T03:17:43.278Z,98.40
2019-02-10T03:20:19.119Z,98.10
2019-02-10T03:23:01.632Z,98.30
2019-02-10T03:25:35.190Z,98.10
2019-02-10T03:28:09.113Z,98.00
2019-02-10T03:30:42.836Z,98.00
2019-02-10T03:33:16.933Z,98.10
2019-02-10T03:35:50.750Z,98.20
2019-02-10T03:38:24.812Z,98.20
2019-02-10T03:40:58.510Z,98.10
2019-02-10T03:43:32.321Z,98.10
2019-02-10T03:46:06.283Z,98.40
2019-02-10T03:48:40.788Z,98.10
2019-02-10T03:51:14.676Z,98.10
2019-02-10T03:53:48.694Z,98.00
2019-02-10T03:56:22.365Z,97.80
2019-02-10T03:58:56.989Z,97.90
2019-02-10T04:01:30.559Z,97.80
2019-02-10T04:04:04.492Z,97.90
2019-02-10T04:06:38.129Z,97.90
2019-02-10T04:09:15.053Z,97.90
2019-02-10T04:11:48.690Z,97.90
2019-02-10T04:14:23.117Z,97.90
2019-02-10T04:16:57.323Z,97.90
2019-02-10T04:19:31.334Z,97.80
2019-02-10T04:22:07.664Z,97.90
2019-02-10T04:24:41.779Z,98.10
2019-02-10T04:27:15.319Z,98.20
2019-02-10T04:29:49.437Z,98.20
2019-02-10T04:32:22.910Z,98.00
2019-02-10T04:34:57.214Z,97.70
2019-02-10T04:37:30.772Z,97.70
2019-02-10T04:40:05.281Z,97.70
2019-02-10T04:42:38.947Z,97.90
2019-02-10T04:45:12.842Z,97.50
2019-02-10T04:47:46.557Z,97.60
2019-02-10T04:50:20.190Z,97.70
2019-02-10T04:52:53.649Z,97.60
2019-02-10T04:55:27.681Z,97.70
2019-02-10T04:58:01.216Z,97.70
2019-02-10T05:00:35.172Z,97.60
2019-02-10T05:03:08.788Z,97.50
2019-02-10T05:05:42.810Z,97.50
2019-02-10T05:08:16.353Z,97.40
2019-02-10T05:10:51.328Z,97.40
2019-02-10T05:13:25.674Z,97.50
2019-02-10T05:15:59.602Z,97.40
2019-02-10T05:18:33.313Z,97.40
2019-02-10T05:21:07.410Z,97.40
2019-02-10T05:23:41.045Z,97.40
2019-02-10T05:26:15.625Z,97.40
2019-02-10T05:28:49.351Z,97.50
2019-02-10T05:31:23.366Z,97.50
2019-02-10T05:33:56.893Z,97.50
2019-02-10T05:36:30.846Z,97.50
2019-02-10T05:39:07.021Z,97.50
2019-02-10T05:41:40.618Z,97.50
2019-02-10T05:44:14.061Z,97.50
2019-02-10T05:46:48.425Z,97.50
2019-02-10T05:49:24.766Z,97.70
2019-02-10T05:51:58.808Z,97.80
2019-02-10T05:54:33.037Z,97.70
2019-02-10T05:57:06.995Z,97.70
2019-02-10T05:59:40.670Z,97.70
2019-02-10T06:02:27.689Z,97.70
2019-02-10T06:05:14.655Z,97.70
2019-02-10T06:07:48.965Z,97.80
2019-02-10T06:10:23.340Z,97.60
2019-02-10T06:12:59.960Z,97.70
2019-02-10T06:15:33.379Z,97.80
2019-02-10T06:18:07.293Z,98.00
2019-02-10T06:20:41.099Z,98.30
2019-02-10T06:23:15.498Z,98.50
2019-02-10T06:25:49.034Z,98.40
2019-02-10T06:28:23.758Z,98.10
2019-02-10T06:30:59.487Z,98.10
2019-02-10T06:33:33.697Z,98.30
2019-02-10T06:36:07.378Z,98.20
2019-02-10T06:38:41.605Z,98.10
2019-02-10T06:41:15.095Z,98.00
2019-02-10T06:43:49.593Z,97.70
2019-02-10T06:46:23.209Z,97.50
2019-02-10T06:48:58.573Z,97.40
2019-02-10T06:51:32.250Z,97.10
2019-02-10T06:54:06.358Z,96.80
2019-02-10T06:56:40.047Z,97.00
2019-02-10T06:59:28.304Z,96.80
2019-02-10T07:02:09.799Z,96.70
2019-02-10T07:04:43.505Z,96.30
2019-02-10T07:07:17.168Z,96.30
2019-02-10T07:09:51.203Z,96.20
2019-02-10T07:12:48.986Z,96.20
2019-02-10T07:16:00.492Z,96.20
2019-02-10T07:19:09.045Z,96.40
2019-02-10T07:21:46.858Z,96.40
2019-02-10T07:24:51.117Z,96.30
2019-02-10T07:27:34.099Z,96.20
2019-02-10T07:30:47.989Z,96.20
2019-02-10T07:33:44.372Z,95.80
2019-02-10T07:36:29.033Z,95.90
2019-02-10T07:39:27.162Z,96.10
2019-02-10T07:42:34.563Z,96.00
2019-02-10T07:45:29.736Z,95.80
2019-02-10T07:48:21.354Z,95.80
2019-02-10T07:51:27.255Z,95.90
2019-02-10T07:54:18.174Z,95.80
2019-02-10T07:57:14.329Z,95.50
2019-02-10T08:00:00.303Z,95.50
2019-02-10T08:02:58.890Z,95.30
2019-02-10T08:06:10.113Z,95.40
2019-02-10T08:09:04.875Z,95.40
2019-02-10T08:12:01.225Z,95.20
2019-02-10T08:15:09.729Z,95.20
2019-02-10T08:18:18.691Z,95.00
2019-02-10T08:21:30.710Z,95.00
2019-02-10T08:24:33.983Z,94.90
2019-02-10T08:27:33.475Z,94.90
2019-02-10T08:30:21.310Z,94.70
2019-02-10T08:33:21.503Z,94.70
2019-02-10T08:36:11.797Z,94.80
2019-02-10T08:39:42.008Z,94.80
2019-02-10T08:42:44.316Z,94.70
2019-02-10T08:45:43.657Z,94.50
2019-02-10T08:48:38.790Z,94.60
2019-02-10T08:51:53.210Z,94.50
2019-02-10T08:54:28.379Z,93.90
2019-02-10T08:57:03.125Z,93.90
2019-02-10T08:59:36.951Z,93.90
2019-02-10T09:02:11.179Z,93.70
2019-02-10T09:04:45.283Z,93.70
2019-02-10T09:07:18.987Z,93.50
2019-02-10T09:09:52.750Z,93.30
2019-02-10T09:12:27.006Z,93.40
2019-02-10T09:15:00.611Z,93.90
2019-02-10T09:17:34.894Z,93.50
2019-02-10T09:20:12.687Z,93.30
2019-02-10T09:22:48.904Z,93.30
2019-02-10T09:25:23.325Z,93.30
2019-02-10T09:27:58.392Z,93.50
2019-02-10T09:30:32.744Z,94.00
2019-02-10T09:33:08.078Z,93.90
2019-02-10T09:35:42.019Z,93.90
2019-02-10T09:38:16.800Z,93.80
2019-02-10T09:40:50.868Z,93.60
2019-02-10T09:43:25.206Z,93.70
2019-02-10T09:45:59.416Z,93.80
2019-02-10T09:48:33.996Z,93.40
2019-02-10T09:51:08.831Z,93.40
2019-02-10T09:53:44.588Z,93.30
2019-02-10T09:56:19.742Z,93.20
2019-02-10T09:58:53.858Z,93.10
2019-02-10T10:01:28.502Z,92.60
2019-02-10T10:04:04.507Z,92.50
2019-02-10T10:06:39.554Z,92.20
2019-02-10T10:09:19.384Z,92.20
2019-02-10T10:11:49.681Z,92.40
2019-02-10T10:14:30.659Z,92.60
2019-02-10T10:17:00.549Z,92.80
2019-02-10T10:19:34.684Z,92.70
2019-02-10T10:22:09.978Z,92.60
2019-02-10T10:24:50.354Z,92.20
2019-02-10T10:27:21.636Z,92.30
2019-02-10T10:29:56.823Z,91.90
2019-02-10T10:32:31.477Z,91.70
2019-02-10T10:35:05.863Z,91.90
2019-02-10T10:37:40.051Z,91.80
2019-02-10T10:40:15.254Z,91.50
2019-02-10T10:42:51.179Z,91.00
2019-02-10T10:45:27.746Z,91.20
2019-02-10T10:48:02.023Z,91.30
2019-02-10T10:50:36.410Z,91.50
2019-02-10T10:53:10.443Z,91.30
2019-02-10T10:55:44.982Z,91.30
2019-02-10T10:58:19.591Z,91.30
2019-02-10T11:00:54.625Z,91.00
2019-02-10T11:03:29.298Z,91.40
2019-02-10T11:06:05.101Z,91.40
2019-02-10T11:08:41.727Z,91.30
2019-02-10T11:11:22.687Z,90.90
2019-02-10T11:13:57.447Z,90.90
2019-02-10T11:16:33.227Z,90.40
2019-02-10T11:19:07.671Z,90.30
2019-02-10T11:21:41.578Z,90.20
2019-02-10T11:24:19.341Z,90.40
2019-02-10T11:26:54.207Z,89.60
2019-02-10T11:29:28.518Z,89.40
2019-02-10T11:32:03.139Z,89.10
2019-02-10T11:34:38.522Z,89.10
2019-02-10T11:37:14.171Z,89.40
2019-02-10T11:39:49.300Z,88.20
2019-02-10T11:42:24.584Z,88.50
2019-02-10T11:44:59.725Z,88.70
2019-02-10T11:47:33.775Z,88.40
2019-02-10T11:50:09.193Z,88.40
2019-02-10T11:52:43.825Z,89.10
2019-02-10T11:55:18.786Z,89.40
2019-02-10T11:57:54.543Z,89.20
2019-02-10T12:00:29.418Z,89.30
2019-02-10T12:03:04.385Z,89.40
2019-02-10T12:05:38.505Z,88.80
2019-02-10T12:08:13.517Z,88.80
2019-02-10T12:10:50.526Z,88.90
2019-02-10T12:13:25.699Z,88.70
2019-02-10T12:15:59.575Z,88.90
2019-02-10T12:18:33.707Z,88.70
2019-02-10T12:21:07.720Z,88.90
2019-02-10T12:23:42.751Z,88.20
2019-02-10T12:26:20.439Z,88.60
2019-02-10T12:28:55.495Z,88.80
2019-02-10T12:31:30.294Z,89.90
2019-02-10T12:34:05.301Z,90.10
2019-02-10T12:36:39.236Z,89.60
2019-02-10T12:39:14.552Z,89.80
2019-02-10T12:41:51.972Z,90.00
2019-02-10T12:44:28.124Z,89.50
2019-02-10T12:47:02.624Z,90.00
2019-02-10T12:49:36.888Z,89.60
2019-02-10T12:52:11.405Z,89.30
2019-02-10T12:54:46.182Z,88.80
2019-02-10T12:57:20.617Z,89.00
2019-02-10T12:59:56.261Z,89.00
2019-02-10T13:02:31.506Z,89.50
2019-02-10T13:05:06.062Z,89.50
2019-02-10T13:07:39.895Z,90.00
2019-02-10T13:10:17.465Z,89.70
2019-02-10T13:12:51.407Z,90.00
2019-02-10T13:15:25.733Z,90.10
2019-02-10T13:18:00.407Z,89.10
2019-02-10T13:20:34.835Z,89.20
2019-02-10T13:23:08.569Z,88.70
2019-02-10T13:25:44.187Z,87.80
2019-02-10T13:28:19.769Z,87.20
2019-02-10T13:30:53.933Z,87.50
2019-02-10T13:33:28.101Z,87.10
2019-02-10T13:36:02.536Z,86.40
2019-02-10T13:38:37.003Z,87.20
2019-02-10T13:41:11.785Z,86.80
2019-02-10T13:43:45.678Z,86.50
2019-02-10T13:46:21.898Z,86.80
2019-02-10T13:48:57.790Z,86.90
2019-02-10T13:51:30.345Z,85.10
2019-02-10T13:54:06.433Z,86.10
2019-02-10T13:56:40.589Z,85.40
2019-02-10T13:59:15.243Z,85.60
2019-02-10T14:01:49.889Z,84.90
2019-02-10T14:04:24.558Z,84.70
2019-02-10T14:06:59.919Z,85.20
2019-02-10T14:09:34.465Z,84.50
2019-02-10T14:12:09.123Z,84.10
2019-02-10T14:14:44.027Z,84.00
2019-02-10T14:17:17.778Z,84.00
2019-02-10T14:19:52.150Z,83.70
2019-02-10T14:22:27.629Z,83.40
2019-02-10T14:25:01.348Z,83.90
2019-02-10T14:27:35.994Z,84.50
2019-02-10T14:30:14.848Z,84.80
2019-02-10T14:32:50.352Z,85.00
2019-02-10T14:35:25.133Z,86.20
2019-02-10T14:37:59.593Z,86.10
2019-02-10T14:40:34.271Z,86.20
2019-02-10T14:43:10.279Z,86.50
2019-02-10T14:45:44.950Z,86.80
2019-02-10T14:48:22.499Z,86.30
2019-02-10T14:50:56.702Z,87.20
2019-02-10T14:53:33.314Z,87.30
2019-02-10T14:56:07.244Z,87.70
2019-02-10T14:58:43.351Z,88.00
2019-02-10T15:01:17.920Z,88.40
2019-02-10T15:03:52.015Z,88.90
2019-02-10T15:06:26.217Z,88.70
2019-02-10T15:09:01.213Z,88.70
2019-02-10T15:11:41.526Z,88.40
2019-02-10T15:14:16.838Z,88.40
2019-02-10T15:16:51.826Z,88.90
2019-02-10T15:19:27.021Z,88.80
2019-02-10T15:22:01.018Z,88.80
2019-02-10T15:24:35.893Z,87.70
2019-02-10T15:27:10.258Z,88.20
2019-02-10T15:29:45.121Z,88.20
2019-02-10T15:32:21.625Z,87.90
2019-02-10T15:34:56.173Z,88.10
2019-02-10T15:37:30.508Z,88.20
2019-02-10T15:40:04.990Z,87.60
2019-02-10T15:42:39.824Z,87.10
2019-02-10T15:45:14.989Z,87.30
2019-02-10T15:47:49.219Z,87.70
2019-02-10T15:50:23.534Z,86.90
2019-02-10T15:52:57.456Z,86.10
2019-02-10T15:55:32.107Z,85.90
2019-02-10T15:58:07.696Z,86.30
2019-02-10T16:00:42.146Z,86.90
2019-02-10T16:03:16.389Z,86.90
2019-02-10T16:05:51.015Z,86.80
2019-02-10T16:08:28.829Z,87.50
2019-02-10T16:11:03.086Z,88.80
2019-02-10T16:13:37.217Z,88.70
2019-02-10T16:16:12.030Z,89.10
2019-02-10T16:18:48.913Z,89.20
2019-02-10T16:21:23.223Z,89.20
2019-02-10T16:23:57.129Z,89.80
2019-02-10T16:26:32.024Z,90.30
2019-02-10T16:29:06.408Z,90.50
2019-02-10T16:31:40.649Z,90.70
2019-02-10T16:34:18.618Z,90.90
2019-02-10T16:36:52.857Z,91.20
2019-02-10T16:39:26.774Z,91.30
2019-02-10T16:42:01.707Z,91.30
2019-02-10T16:44:38.956Z,91.70
2019-02-10T16:47:14.414Z,92.00
2019-02-10T16:49:48.513Z,92.10
2019-02-10T16:52:23.653Z,92.20
2019-02-10T16:54:58.445Z,92.60
2019-02-10T16:57:32.405Z,92.80
2019-02-10T17:00:06.799Z,93.10
2019-02-10T17:02:43.561Z,93.50
2019-02-10T17:05:17.299Z,93.60
2019-02-10T17:07:52.807Z,93.60
2019-02-10T17:10:28.075Z,93.70
2019-02-10T17:13:03.066Z,93.90
2019-02-10T17:15:38.778Z,94.20
2019-02-10T17:18:13.532Z,94.40
2019-02-10T17:20:48.769Z,94.70
2019-02-10T17:23:23.478Z,94.90
2019-02-10T17:25:58.231Z,95.10
2019-02-10T17:28:32.992Z,95.30
2019-02-10T17:31:10.990Z,95.40
2019-02-10T17:33:45.917Z,95.40
2019-02-10T17:36:22.735Z,95.00
2019-02-10T17:38:56.858Z,95.00
2019-02-10T17:41:41.732Z,95.10
2019-02-10T17:44:15.931Z,95.10
2019-02-10T17:46:54.157Z,95.10
2019-02-10T17:49:32.428Z,94.90
2019-02-10T17:52:06.217Z,94.90
2019-02-10T17:54:39.564Z,94.60
2019-02-10T17:57:15.098Z,94.60
2019-02-10T17:59:50.841Z,94.60
2019-02-10T18:02:27.423Z,94.60
2019-02-10T18:05:02.256Z,94.40
2019-02-10T18:07:40.091Z,94.60
2019-02-10T18:10:14.687Z,94.20
2019-02-10T18:12:49.124Z,94.00
2019-02-10T18:15:46.899Z,94.00
2019-02-10T18:18:37.565Z,94.10
2019-02-10T18:21:31.117Z,94.10
2019-02-10T18:24:26.743Z,94.20
2019-02-10T18:27:24.560Z,94.30
2019-02-10T18:30:33.745Z,94.50
2019-02-10T18:33:28.465Z,94.10
2019-02-10T18:36:21.485Z,94.20
2019-02-10T18:39:18.122Z,93.90
2019-02-10T18:42:21.142Z,93.90
2019-02-10T18:45:34.884Z,94.20
2019-02-10T18:48:23.335Z,94.30
2019-02-10T18:51:14.444Z,93.90
2019-02-10T18:54:15.862Z,94.10
2019-02-10T18:57:31.742Z,94.30
2019-02-10T19:00:33.303Z,94.60
2019-02-10T19:03:44.088Z,94.80
2019-02-10T19:06:32.992Z,95.00
2019-02-10T19:09:43.782Z,95.10
2019-02-10T19:12:28.180Z,95.30
2019-02-10T19:15:22.314Z,95.30
2019-02-10T19:18:07.214Z,95.40
2019-02-10T19:20:57.487Z,95.50
2019-02-10T19:24:11.677Z,95.50
2019-02-10T19:27:16.493Z,95.50
2019-02-10T19:30:05.752Z,95.70
2019-02-10T19:32:49.640Z,95.80
2019-02-10T19:35:38.378Z,95.90
2019-02-10T19:38:39.310Z,95.90
2019-02-10T19:41:24.007Z,96.10
2019-02-10T19:44:17.300Z,96.30
2019-02-10T19:47:16.569Z,96.20
2019-02-10T19:50:30.092Z,96.20
2019-02-10T19:53:20.724Z,96.00
2019-02-10T19:56:23.875Z,95.90
2019-02-10T19:59:37.902Z,95.90
2019-02-10T20:02:28.262Z,95.90
2019-02-10T20:05:20.831Z,96.00
2019-02-10T20:08:13.143Z,96.10
2019-02-10T20:11:10.647Z,96.10
2019-02-10T20:14:05.073Z,96.20
2019-02-10T20:16:56.985Z,96.20
2019-02-10T20:19:57.295Z,96.30
2019-02-10T20:22:54.685Z,96.50
2019-02-10T20:25:42.346Z,96.60
2019-02-10T20:28:34.958Z,96.60
2019-02-10T20:31:19.819Z,96.70
2019-02-10T20:34:12.944Z,96.70
2019-02-10T20:37:06.402Z,96.90
2019-02-10T20:40:01.190Z,97.10
2019-02-10T20:42:46.457Z,97.20
2019-02-10T20:45:29.333Z,97.20
2019-02-10T20:48:14.543Z,97.00
2019-02-10T20:51:11.617Z,96.90
2019-02-10T20:54:12.346Z,96.70
2019-02-10T20:57:15.055Z,96.80
2019-02-10T21:00:04.175Z,96.90
2019-02-10T21:02:47.199Z,97.10
2019-02-10T21:05:31.036Z,97.00
2019-02-10T21:08:25.058Z,97.00
2019-02-10T21:11:18.587Z,97.10
2019-02-10T21:14:22.299Z,97.20
2019-02-10T21:17:16.233Z,97.40
2019-02-10T21:20:10.309Z,97.10
2019-02-10T21:23:07.657Z,97.30
2019-02-10T21:26:00.511Z,97.20
2019-02-10T21:28:48.194Z,97.40
2019-02-10T21:31:48.674Z,97.40
2019-02-10T21:34:43.883Z,97.40
2019-02-10T21:37:54.544Z,97.50
2019-02-10T21:40:43.387Z,97.60
2019-02-10T21:43:44.063Z,97.40
2019-02-10T21:46:29.124Z,97.40
2019-02-10T21:49:25.646Z,97.50
2019-02-10T21:51:59.460Z,97.50
2019-02-10T21:54:34.586Z,97.60
2019-02-10T21:57:09.352Z,97.60
2019-02-10T21:59:45.936Z,97.40
2019-02-10T22:02:20.767Z,97.50
2019-02-10T22:04:54.974Z,97.50
2019-02-10T22:07:29.163Z,97.30
2019-02-10T22:10:02.805Z,97.40
2019-02-10T22:12:39.648Z,97.50
2019-02-10T22:15:15.902Z,97.50
2019-02-10T22:17:52.196Z,97.60
2019-02-10T22:20:26.943Z,97.70
2019-02-10T22:23:01.155Z,97.60
2019-02-10T22:25:35.338Z,97.40
2019-02-10T22:28:10.066Z,97.30
2019-02-10T22:30:43.884Z,97.40
2019-02-10T22:33:18.128Z,97.30
2019-02-10T22:35:55.277Z,97.50
2019-02-10T22:38:29.819Z,97.60
2019-02-10T22:41:03.520Z,97.60
2019-02-10T22:43:42.914Z,97.80
2019-02-10T22:46:16.618Z,97.90
2019-02-10T22:48:50.969Z,98.00
2019-02-10T22:51:25.020Z,97.90
2019-02-10T22:53:59.605Z,97.90
2019-02-10T22:56:33.478Z,98.00
2019-02-10T22:59:07.648Z,98.00
2019-02-10T23:01:41.719Z,98.00
2019-02-10T23:04:15.203Z,98.00
2019-02-10T23:06:52.244Z,98.00
2019-02-10T23:09:26.289Z,98.10
2019-02-10T23:12:00.331Z,98.10
2019-02-10T23:14:35.107Z,98.10
2019-02-10T23:17:09.609Z,98.10
2019-02-10T23:19:43.748Z,98.10
2019-02-10T23:22:17.505Z,98.10
2019-02-10T23:24:52.689Z,97.80
2019-02-10T23:27:27.616Z,97.90
2019-02-10T23:30:01.706Z,97.80
2019-02-10T23:32:35.614Z,97.80
2019-02-10T23:35:09.485Z,97.80
2019-02-10T23:37:43.940Z,97.80
2019-02-10T23:40:17.280Z,97.90
2019-02-10T23:42:51.184Z,97.90
2019-02-10T23:45:26.218Z,98.00
2019-02-10T23:48:01.991Z,97.90
2019-02-10T23:50:37.124Z,97.80
2019-02-10T23:53:13.156Z,97.70
2019-02-10T23:55:47.800Z,97.60
2019-02-10T23:58:21.762Z,97.70
